Rancho La Purisima, Mexico

9:41 AM CDT on June 26, 2017 (GMT -0500)
Durango | | Change Station

Elev 6093 ft 24.13 °N, 104.53 °W | Updated 57 minutes ago

Mostly Cloudy
Mostly Cloudy
68 °F
Feels Like 68 °F
N
6
Wind Variable Wind from NE

Today
High -- | Low -- °F
--% Chance of Precip.
Yesterday
High -- | Low -- °F
Precip. -- in
Pressure 30.31 in
Visibility 12.0 miles
Clouds Scattered Clouds 8000 ft
Mostly Cloudy 20000 ft
Dew Point 52 °F
Humidity 56%
Rainfall 0.00 in
Snow Depth Not available.
7:12 AM 8:49 PM
Waxing Crescent, 9% visible
METAR MMDO 261344Z 04005KT 12SM SCT080 BKN200 20/11 A3031 RMK 8/048
Pressure 30.31 in
Visibility 12.0 miles
Clouds Scattered Clouds 8000 ft
Mostly Cloudy 20000 ft
Dew Point 52 °F
Humidity 56%
Rainfall 0.00 in
Snow Depth Not available.
7:12 AM 8:49 PM
Waxing Crescent, 9% visible
METAR MMDO 261344Z 04005KT 12SM SCT080 BKN200 20/11 A3031 RMK 8/048

Get Severe Weather Alerts

Thanks for signing up!

Be on the lookout for a verification email in your inbox.

You'll start receiving the daily forecast at 6 AM.

×

10-Day Weather Forecast

No radar image for this location.
×

Almanac

Astronomy

Jun. 26, 2017 Rise Set
Actual Time
Civil Twilight
Nautical Twilight
Astronomical Twilight
Moon
Length of Visible Light
Length of Day
Tomorrow will be .
, % of the Moon is Illuminated

Today's Extremes

Country Highs Country Lows

Community

WunderPhotos

Category 6

Welcome to Category 6. This is the collective home for Weather Underground's featured writeups by Dr. Jeff Masters (right), Bob Henson (left), Chris Burt, and other regular contributors.

Nearby

Air Quality

  Air Quality AQ Index Pollutant
Not available.

Snow Depth

Station Depth Elevation

Earthquake Activity

City Distance Mag. Time & Date
Minimum magnitude displayed is 2.5.

Coastal Water Temperatures

Place Temperature

Stations

Nearby Weather Stations

Station Location Temp. Windchill Dew Point Humidity Wind Precip. Elev Updated Type